Time;durP1;ratioP1;P1;durP2;ratioP2;P2;SDS_P1;SDS_P2;PMS_P1;PMS_P2;Temp;Humidity;BMP_temperature;BMP_pressure;BME280_temperature;BME280_humidity;BME280_pressure;Samples;Min_cycle;Max_cycle;Signal;HPM_P1;HPM_P2
2022/02/25 00:00:24;;;;;;;;;;;2.60;99.90;;;;;;8410784;28;19962;-71
2022/02/25 00:04:25;;;;;;;;;;;2.60;99.90;;;;;;8411811;28;20401;-72
2022/02/25 00:08:27;;;;;;;;;;;2.60;99.90;;;;;;8408058;28;19931;-72
2022/02/25 00:12:29;;;;;;;;;;;2.60;99.90;;;;;;8391945;28;19936;-71
2022/02/25 00:16:30;;;;;;;;;;;2.60;99.90;;;;;;8407899;28;19924;-71
2022/02/25 00:20:32;;;;;;;;;;;2.70;99.90;;;;;;8388726;28;19924;-71
2022/02/25 00:24:34;;;;;;;;;;;2.80;99.90;;;;;;8404378;28;20380;-71
2022/02/25 00:28:35;;;;;;;;;;;2.90;99.90;;;;;;8410720;28;19955;-71
2022/02/25 00:32:38;;;;;;;;;;;2.90;99.90;;;;;;8407514;28;19924;-72
2022/02/25 00:36:40;;;;;;;;;;;2.80;99.90;;;;;;8405372;28;21009;-71
2022/02/25 00:40:42;;;;;;;;;;;2.70;99.90;;;;;;8394817;28;19939;-71
2022/02/25 00:44:44;;;;;;;;;;;2.70;99.90;;;;;;8407946;28;19925;-71
2022/02/25 00:48:45;;;;;;;;;;;2.70;99.90;;;;;;8408141;28;20422;-71
2022/02/25 00:52:47;;;;;;;;;;;2.60;99.90;;;;;;8397389;28;19924;-71
2022/02/25 00:56:49;;;;;;;;;;;2.70;99.90;;;;;;8407955;28;19929;-72
2022/02/25 01:00:51;;;;;;;;;;;2.60;99.90;;;;;;8417306;28;19924;-72
2022/02/25 01:04:55;;;;;;;;;;;2.60;99.90;;;;;;8413142;28;19924;-71
2022/02/25 01:08:57;;;;;;;;;;;2.60;99.90;;;;;;8400558;28;19935;-71
2022/02/25 01:12:59;;;;;;;;;;;2.60;99.90;;;;;;8410168;28;19936;-72
2022/02/25 01:17:01;;;;;;;;;;;2.60;99.90;;;;;;8412533;28;19924;-71
2022/02/25 01:21:02;;;;;;;;;;;2.50;99.90;;;;;;8393178;28;20351;-71
2022/02/25 01:25:04;;;;;;;;;;;2.50;99.90;;;;;;8399027;28;20023;-71
2022/02/25 01:29:06;;;;;;;;;;;2.50;99.90;;;;;;8417176;28;20367;-71
2022/02/25 01:33:08;;;;;;;;;;;2.50;99.90;;;;;;8391157;28;19940;-72
2022/02/25 01:37:09;;;;;;;;;;;2.50;99.90;;;;;;8395877;28;19928;-72
2022/02/25 01:41:11;;;;;;;;;;;2.50;99.90;;;;;;8418797;28;19924;-71
2022/02/25 01:45:13;;;;;;;;;;;2.50;99.90;;;;;;8408296;28;19925;-71
2022/02/25 01:49:15;;;;;;;;;;;2.50;99.90;;;;;;8415575;28;19924;-72
2022/02/25 01:53:20;;;;;;;;;;;2.50;99.90;;;;;;8390704;28;19924;-72
2022/02/25 01:57:21;;;;;;;;;;;2.50;99.90;;;;;;8407942;28;19932;-71
2022/02/25 02:01:23;;;;;;;;;;;2.50;99.90;;;;;;8391139;28;20298;-71
2022/02/25 02:05:25;;;;;;;;;;;2.60;99.90;;;;;;8407996;28;20372;-72
2022/02/25 02:09:27;;;;;;;;;;;2.60;99.90;;;;;;8401003;28;19932;-72
2022/02/25 02:13:29;;;;;;;;;;;2.70;99.90;;;;;;8413222;28;19935;-71
2022/02/25 02:17:31;;;;;;;;;;;2.70;99.90;;;;;;8406239;28;19931;-71
2022/02/25 02:21:34;;;;;;;;;;;2.80;99.90;;;;;;8395304;28;19924;-72
2022/02/25 02:25:36;;;;;;;;;;;2.90;99.90;;;;;;8410623;28;19932;-71
2022/02/25 02:29:37;;;;;;;;;;;2.90;99.90;;;;;;8412737;28;20376;-71
2022/02/25 02:33:40;;;;;;;;;;;2.90;99.90;;;;;;8416033;28;19931;-71
2022/02/25 02:37:41;;;;;;;;;;;3.00;99.90;;;;;;8409213;28;19944;-71
2022/02/25 02:41:43;;;;;;;;;;;3.00;99.90;;;;;;8390309;28;19936;-72
2022/02/25 02:45:45;;;;;;;;;;;3.00;99.90;;;;;;8390274;28;20283;-71
2022/02/25 02:49:47;;;;;;;;;;;3.00;99.90;;;;;;8416579;28;20224;-71
2022/02/25 02:53:48;;;;;;;;;;;3.00;99.90;;;;;;8397273;28;19932;-72
2022/02/25 02:57:50;;;;;;;;;;;3.10;99.90;;;;;;8411654;28;19932;-71
2022/02/25 03:01:52;;;;;;;;;;;3.00;99.90;;;;;;8403046;28;20340;-71
2022/02/25 03:05:54;;;;;;;;;;;3.10;99.90;;;;;;8391559;28;19924;-71
2022/02/25 03:09:56;;;;;;;;;;;3.10;99.90;;;;;;8415399;28;19928;-71
2022/02/25 03:13:58;;;;;;;;;;;3.00;99.90;;;;;;8408080;28;19928;-72
2022/02/25 03:18:00;;;;;;;;;;;3.00;99.90;;;;;;8411406;28;19935;-71
2022/02/25 03:22:02;;;;;;;;;;;3.00;99.90;;;;;;8412030;28;19928;-71
2022/02/25 03:26:04;;;;;;;;;;;3.00;99.90;;;;;;8414719;28;19943;-71
2022/02/25 03:30:06;;;;;;;;;;;3.00;99.90;;;;;;8411395;28;19924;-71
2022/02/25 03:34:08;;;;;;;;;;;2.90;99.90;;;;;;8411044;28;19928;-71
2022/02/25 03:38:10;;;;;;;;;;;2.80;99.90;;;;;;8406803;28;20335;-71
2022/02/25 03:42:11;;;;;;;;;;;2.80;99.90;;;;;;8384117;28;20402;-71
2022/02/25 03:46:13;;;;;;;;;;;2.70;99.90;;;;;;8415838;28;19940;-71
2022/02/25 03:50:15;;;;;;;;;;;2.70;99.90;;;;;;8403435;28;19960;-71
2022/02/25 03:54:16;;;;;;;;;;;2.70;99.90;;;;;;8410389;28;19924;-72
2022/02/25 03:58:18;;;;;;;;;;;2.70;99.90;;;;;;8387068;28;19932;-72
2022/02/25 04:02:20;;;;;;;;;;;2.70;99.90;;;;;;8414212;28;19939;-72
2022/02/25 04:06:22;;;;;;;;;;;2.70;99.90;;;;;;8393062;28;20011;-72
2022/02/25 04:10:24;;;;;;;;;;;2.70;99.90;;;;;;8381381;28;19928;-71
2022/02/25 04:14:25;;;;;;;;;;;2.70;99.90;;;;;;8411704;28;20388;-71
2022/02/25 04:18:27;;;;;;;;;;;2.70;99.90;;;;;;8387137;28;19925;-71
2022/02/25 04:22:29;;;;;;;;;;;2.70;99.90;;;;;;8388028;28;20014;-71
2022/02/25 04:26:31;;;;;;;;;;;2.70;99.90;;;;;;8411942;28;19932;-71
2022/02/25 04:30:32;;;;;;;;;;;2.70;99.90;;;;;;8393127;28;20392;-71
2022/02/25 04:34:34;;;;;;;;;;;2.70;99.90;;;;;;8415916;28;20276;-71
2022/02/25 04:38:36;;;;;;;;;;;2.70;99.90;;;;;;8418749;28;19975;-71
2022/02/25 04:42:38;;;;;;;;;;;2.70;99.90;;;;;;8398793;28;19932;-71
2022/02/25 04:46:39;;;;;;;;;;;2.70;99.90;;;;;;8420399;28;19924;-71
2022/02/25 04:50:41;;;;;;;;;;;2.70;99.90;;;;;;8411739;28;19939;-71
2022/02/25 04:54:43;;;;;;;;;;;2.80;99.90;;;;;;8412284;28;20317;-71
2022/02/25 04:58:45;;;;;;;;;;;2.90;99.90;;;;;;8416240;28;19924;-71
2022/02/25 05:02:47;;;;;;;;;;;2.90;99.90;;;;;;8403961;28;19930;-71
2022/02/25 05:06:48;;;;;;;;;;;3.00;99.90;;;;;;8417078;28;20291;-71
2022/02/25 05:10:50;;;;;;;;;;;3.10;99.90;;;;;;8408425;28;19939;-71
2022/02/25 05:23:32;;;;;;;;;;;3.20;99.90;;;;;;8415976;28;19935;-71
2022/02/25 05:27:34;;;;;;;;;;;3.30;99.90;;;;;;8414622;28;20391;-71
2022/02/25 05:31:36;;;;;;;;;;;3.40;99.90;;;;;;8412685;28;19924;-71
2022/02/25 05:35:38;;;;;;;;;;;3.40;99.90;;;;;;8415133;28;19931;-71
2022/02/25 05:39:41;;;;;;;;;;;3.50;99.90;;;;;;8408317;28;19974;-71
2022/02/25 05:43:43;;;;;;;;;;;3.50;99.90;;;;;;8406262;28;20437;-71
2022/02/25 05:47:45;;;;;;;;;;;3.40;99.90;;;;;;8400228;28;19938;-71
2022/02/25 05:51:47;;;;;;;;;;;3.40;99.90;;;;;;8404487;28;20023;-71
2022/02/25 05:55:48;;;;;;;;;;;3.30;99.90;;;;;;8392448;28;19924;-71
2022/02/25 05:59:50;;;;;;;;;;;3.30;99.90;;;;;;8417629;28;20023;-71
2022/02/25 06:03:53;;;;;;;;;;;3.30;99.90;;;;;;8389923;28;19960;-71
2022/02/25 06:07:59;;;;;;;;;;;3.30;99.90;;;;;;8416022;28;20265;-71
2022/02/25 06:12:05;;;;;;;;;;;3.30;99.90;;;;;;8412003;28;19928;-71
2022/02/25 06:16:06;;;;;;;;;;;3.30;99.90;;;;;;8409501;28;19924;-71
2022/02/25 06:20:08;;;;;;;;;;;3.30;99.90;;;;;;8417803;28;19928;-72
2022/02/25 06:24:10;;;;;;;;;;;3.30;99.90;;;;;;8412380;28;20296;-72
2022/02/25 06:28:12;;;;;;;;;;;3.40;99.90;;;;;;8415355;28;19924;-72
2022/02/25 06:32:13;;;;;;;;;;;3.40;99.90;;;;;;8410849;28;19924;-72
2022/02/25 06:36:17;;;;;;;;;;;3.40;99.90;;;;;;8409649;28;19986;-72
2022/02/25 06:40:18;;;;;;;;;;;3.40;99.90;;;;;;8402499;28;19924;-72
2022/02/25 06:44:20;;;;;;;;;;;3.50;99.90;;;;;;8385772;28;19928;-72
2022/02/25 06:48:22;;;;;;;;;;;3.60;99.90;;;;;;8396594;28;20038;-72
2022/02/25 06:52:23;;;;;;;;;;;3.60;99.90;;;;;;8397270;28;19931;-72
2022/02/25 06:56:25;;;;;;;;;;;3.70;99.90;;;;;;8407851;28;19925;-72
2022/02/25 07:00:27;;;;;;;;;;;3.80;99.90;;;;;;8420750;28;19924;-72
2022/02/25 07:04:28;;;;;;;;;;;3.80;99.90;;;;;;8408668;28;19924;-72
2022/02/25 07:08:30;;;;;;;;;;;3.80;99.90;;;;;;8414105;28;19924;-72
2022/02/25 07:12:32;;;;;;;;;;;3.90;99.90;;;;;;8415468;28;20300;-72
2022/02/25 07:16:34;;;;;;;;;;;3.90;99.90;;;;;;8404216;28;19928;-72
2022/02/25 07:20:36;;;;;;;;;;;4.10;99.90;;;;;;8392059;28;19977;-72
2022/02/25 07:24:37;;;;;;;;;;;4.20;99.90;;;;;;8385718;28;19924;-72
2022/02/25 07:28:39;;;;;;;;;;;4.30;99.90;;;;;;8410009;28;19928;-72
2022/02/25 07:32:41;;;;;;;;;;;4.30;99.90;;;;;;8415171;28;19935;-72
2022/02/25 07:36:43;;;;;;;;;;;4.40;99.90;;;;;;8411936;28;19932;-72
2022/02/25 07:40:45;;;;;;;;;;;4.50;99.90;;;;;;8411791;28;19924;-72
2022/02/25 07:44:46;;;;;;;;;;;4.50;99.90;;;;;;8413019;28;19924;-72
2022/02/25 07:48:48;;;;;;;;;;;4.70;99.90;;;;;;8410434;28;19936;-72
2022/02/25 07:52:50;;;;;;;;;;;4.80;99.90;;;;;;8407039;28;19932;-72
2022/02/25 07:56:51;;;;;;;;;;;4.90;99.90;;;;;;8417251;28;19932;-72
2022/02/25 08:00:53;;;;;;;;;;;5.00;99.90;;;;;;8400886;28;19924;-72
2022/02/25 08:04:55;;;;;;;;;;;5.00;99.90;;;;;;8393882;28;20284;-72
2022/02/25 08:09:03;;;;;;;;;;;5.10;99.90;;;;;;8410006;28;19965;-72
2022/02/25 08:13:05;;;;;;;;;;;5.10;99.90;;;;;;8414952;28;19931;-72
2022/02/25 08:17:07;;;;;;;;;;;5.20;99.90;;;;;;8409172;28;19932;-72
2022/02/25 08:21:09;;;;;;;;;;;5.20;99.90;;;;;;8403278;28;20352;-72
2022/02/25 08:25:11;;;;;;;;;;;5.40;99.90;;;;;;8404472;28;19935;-72
2022/02/25 08:29:13;;;;;;;;;;;5.60;99.90;;;;;;8412128;28;19967;-72
2022/02/25 08:33:15;;;;;;;;;;;5.70;99.90;;;;;;8410429;28;20000;-72
2022/02/25 08:37:17;;;;;;;;;;;5.90;99.90;;;;;;8391398;28;19924;-72
2022/02/25 08:41:19;;;;;;;;;;;6.10;99.90;;;;;;8388678;28;19936;-72
2022/02/25 08:45:21;;;;;;;;;;;6.20;99.90;;;;;;8408068;28;19924;-72
2022/02/25 08:49:22;;;;;;;;;;;6.30;99.90;;;;;;8416195;28;19931;-72
2022/02/25 08:53:24;;;;;;;;;;;6.40;99.90;;;;;;8401261;28;19924;-70
2022/02/25 08:57:26;;;;;;;;;;;6.50;99.90;;;;;;8401494;28;19935;-70
2022/02/25 09:01:29;;;;;;;;;;;6.50;99.90;;;;;;8411781;28;19928;-70
2022/02/25 09:05:31;;;;;;;;;;;6.40;99.90;;;;;;8410511;28;19924;-70
2022/02/25 09:09:32;;;;;;;;;;;6.40;99.90;;;;;;8412409;28;19924;-70
2022/02/25 09:13:34;;;;;;;;;;;6.50;99.90;;;;;;8391492;28;19936;-73
2022/02/25 09:17:36;;;;;;;;;;;6.40;99.90;;;;;;8419404;28;19935;-73
2022/02/25 09:21:38;;;;;;;;;;;6.30;99.90;;;;;;8417025;28;20364;-73
2022/02/25 09:25:40;;;;;;;;;;;6.00;99.90;;;;;;8397239;28;19925;-71
2022/02/25 09:29:42;;;;;;;;;;;5.80;99.90;;;;;;8420189;28;19950;-72
2022/02/25 09:33:44;;;;;;;;;;;5.70;99.90;;;;;;8416871;28;19924;-72
2022/02/25 09:37:45;;;;;;;;;;;5.60;99.90;;;;;;8419469;28;20256;-72
2022/02/25 09:41:48;;;;;;;;;;;5.30;99.90;;;;;;8392528;28;19932;-72
2022/02/25 09:45:52;;;;;;;;;;;5.20;99.90;;;;;;8420362;28;20380;-73
2022/02/25 09:49:54;;;;;;;;;;;5.10;99.90;;;;;;8416729;28;19924;-72
2022/02/25 09:53:56;;;;;;;;;;;5.20;99.90;;;;;;8416743;28;19950;-72
2022/02/25 09:58:03;;;;;;;;;;;5.40;99.90;;;;;;8401953;28;19967;-72
2022/02/25 10:02:05;;;;;;;;;;;5.70;99.90;;;;;;8424990;28;19924;-72
2022/02/25 10:06:09;;;;;;;;;;;5.90;99.90;;;;;;8416729;28;19924;-72
2022/02/25 10:10:11;;;;;;;;;;;6.00;99.90;;;;;;8416423;28;19924;-72
2022/02/25 10:14:12;;;;;;;;;;;6.10;99.90;;;;;;8412561;28;20019;-72
2022/02/25 10:18:16;;;;;;;;;;;6.40;99.90;;;;;;8417445;28;19932;-72
2022/02/25 10:22:24;;;;;;;;;;;6.90;99.90;;;;;;8411372;28;19935;-72
2022/02/25 10:26:27;;;;;;;;;;;6.90;99.90;;;;;;8417447;28;20333;-72
2022/02/25 10:30:29;;;;;;;;;;;6.80;99.90;;;;;;8413463;28;19947;-72
2022/02/25 10:34:31;;;;;;;;;;;6.90;99.90;;;;;;8421002;28;19924;-72
2022/02/25 10:38:36;;;;;;;;;;;6.90;99.90;;;;;;8398787;28;19929;-72
2022/02/25 10:42:42;;;;;;;;;;;6.80;99.90;;;;;;8416521;28;20378;-72
2022/02/25 10:46:44;;;;;;;;;;;6.80;99.90;;;;;;8390663;28;19924;-72
2022/02/25 10:50:47;;;;;;;;;;;6.90;99.90;;;;;;8414211;28;19924;-72
2022/02/25 10:54:49;;;;;;;;;;;7.00;99.90;;;;;;8409989;28;19941;-73
2022/02/25 10:58:56;;;;;;;;;;;7.00;99.90;;;;;;8405469;28;19932;-72
2022/02/25 11:03:01;;;;;;;;;;;6.90;99.90;;;;;;8415135;28;19924;-72
2022/02/25 11:07:04;;;;;;;;;;;6.80;99.90;;;;;;8407960;28;19928;-72
2022/02/25 11:11:05;;;;;;;;;;;6.80;99.90;;;;;;8408485;28;19924;-72
2022/02/25 11:15:09;;;;;;;;;;;6.60;99.90;;;;;;8397454;28;19990;-72
2022/02/25 11:19:11;;;;;;;;;;;6.60;99.90;;;;;;8412025;28;20279;-72
2022/02/25 11:23:14;;;;;;;;;;;6.90;99.90;;;;;;8409901;28;19924;-72
2022/02/25 11:27:15;;;;;;;;;;;7.20;99.90;;;;;;8419885;28;19961;-72
2022/02/25 11:31:24;;;;;;;;;;;6.80;99.90;;;;;;8416798;28;19930;-72
2022/02/25 11:35:31;;;;;;;;;;;6.40;99.90;;;;;;8394254;28;19924;-72
2022/02/25 11:39:34;;;;;;;;;;;6.20;99.90;;;;;;8403178;28;19932;-72
2022/02/25 11:43:35;;;;;;;;;;;6.10;99.90;;;;;;8401464;28;19948;-72
2022/02/25 11:47:39;;;;;;;;;;;6.00;99.90;;;;;;8416143;28;19947;-72
2022/02/25 11:51:40;;;;;;;;;;;5.90;99.90;;;;;;8413030;28;20391;-72
2022/02/25 11:55:43;;;;;;;;;;;5.90;99.90;;;;;;8412482;28;19936;-72
2022/02/25 11:59:44;;;;;;;;;;;5.70;99.90;;;;;;8416923;28;20599;-72
2022/02/25 12:04:03;;;;;;;;;;;5.50;99.90;;;;;;8407369;28;19924;-72
2022/02/25 12:08:17;;;;;;;;;;;5.40;99.90;;;;;;8414393;28;20240;-72
2022/02/25 12:12:22;;;;;;;;;;;5.30;99.90;;;;;;8418416;28;20199;-72
2022/02/25 12:16:25;;;;;;;;;;;5.30;99.90;;;;;;8395725;28;19971;-72
2022/02/25 12:20:37;;;;;;;;;;;5.60;99.90;;;;;;8413747;28;19928;-73
2022/02/25 12:24:39;;;;;;;;;;;6.10;99.90;;;;;;8406364;28;19924;-72
2022/02/25 12:28:45;;;;;;;;;;;7.00;99.90;;;;;;8393308;28;19935;-73
2022/02/25 12:32:47;;;;;;;;;;;7.90;99.90;;;;;;8413770;28;19935;-72
2022/02/25 12:36:50;;;;;;;;;;;8.70;99.90;;;;;;8403301;28;19971;-72
2022/02/25 12:40:52;;;;;;;;;;;9.20;99.90;;;;;;8410497;28;19928;-73
2022/02/25 12:44:54;;;;;;;;;;;9.50;99.90;;;;;;8416686;28;20280;-72
2022/02/25 12:48:56;;;;;;;;;;;9.80;99.90;;;;;;8405348;28;19994;-72
2022/02/25 12:53:03;;;;;;;;;;;10.00;99.90;;;;;;8411962;28;20455;-72
2022/02/25 12:57:07;;;;;;;;;;;9.50;99.90;;;;;;8409669;28;19935;-71
2022/02/25 13:01:17;;;;;;;;;;;9.00;99.90;;;;;;8406658;28;19931;-72
2022/02/25 13:05:19;;;;;;;;;;;8.60;99.90;;;;;;8391694;28;19924;-72
2022/02/25 13:09:23;;;;;;;;;;;8.30;99.90;;;;;;8408153;28;19924;-71
2022/02/25 13:13:24;;;;;;;;;;;8.00;99.90;;;;;;8399868;28;20287;-72
2022/02/25 13:17:30;;;;;;;;;;;8.10;99.90;;;;;;8419416;28;20322;-72
2022/02/25 13:21:32;;;;;;;;;;;8.30;99.90;;;;;;8420775;28;19928;-72
2022/02/25 13:25:34;;;;;;;;;;;8.40;99.90;;;;;;8414371;28;19925;-72
2022/02/25 13:29:35;;;;;;;;;;;8.50;99.90;;;;;;8410574;28;19968;-72
2022/02/25 13:33:37;;;;;;;;;;;8.50;99.90;;;;;;8410466;28;19969;-72
2022/02/25 13:37:54;;;;;;;;;;;8.40;99.90;;;;;;8396652;28;20351;-72
2022/02/25 13:41:58;;;;;;;;;;;8.50;99.90;;;;;;8416596;28;20292;-72
2022/02/25 13:46:18;;;;;;;;;;;8.80;99.90;;;;;;8397170;28;19931;-71
2022/02/25 13:54:46;;;;;;;;;;;9.30;99.90;;;;;;8420954;28;19924;-72
2022/02/25 13:58:57;;;;;;;;;;;9.10;99.90;;;;;;8413802;28;20295;-72
2022/02/25 14:03:09;;;;;;;;;;;8.70;99.90;;;;;;8406973;28;19924;-72
2022/02/25 14:07:11;;;;;;;;;;;8.30;99.90;;;;;;8411027;28;19931;-72
2022/02/25 14:11:27;;;;;;;;;;;7.90;99.90;;;;;;8397176;28;20229;-72
2022/02/25 14:15:31;;;;;;;;;;;7.50;99.90;;;;;;8416394;28;19928;-71
2022/02/25 14:19:32;;;;;;;;;;;7.10;99.90;;;;;;8411707;28;19936;-71
2022/02/25 14:23:34;;;;;;;;;;;6.90;99.90;;;;;;8411154;28;19935;-71
2022/02/25 14:27:36;;;;;;;;;;;6.90;99.90;;;;;;8414442;28;19930;-72
2022/02/25 14:31:37;;;;;;;;;;;7.20;99.90;;;;;;8408987;28;19924;-71
2022/02/25 14:35:41;;;;;;;;;;;7.60;99.90;;;;;;8401217;28;19929;-71
2022/02/25 14:39:43;;;;;;;;;;;8.10;99.90;;;;;;8420205;28;19932;-72
2022/02/25 14:43:45;;;;;;;;;;;9.10;99.90;;;;;;8417983;28;19931;-71
2022/02/25 14:47:48;;;;;;;;;;;10.30;99.90;;;;;;8422289;28;19959;-71
2022/02/25 14:51:50;;;;;;;;;;;11.30;99.90;;;;;;8410611;28;19928;-71
2022/02/25 14:55:52;;;;;;;;;;;12.10;99.90;;;;;;8397289;28;20559;-71
2022/02/25 14:59:54;;;;;;;;;;;12.50;99.90;;;;;;8409652;28;19947;-72
2022/02/25 15:03:55;;;;;;;;;;;12.80;99.90;;;;;;8414582;28;20394;-71
2022/02/25 15:08:02;;;;;;;;;;;12.80;99.90;;;;;;8415144;28;19932;-71
2022/02/25 15:12:04;;;;;;;;;;;12.30;99.90;;;;;;8406083;28;20399;-71
2022/02/25 15:16:05;;;;;;;;;;;11.60;99.90;;;;;;8417358;28;20279;-71
2022/02/25 15:20:08;;;;;;;;;;;11.30;99.90;;;;;;8409482;28;19968;-71
2022/02/25 15:24:10;;;;;;;;;;;11.50;99.90;;;;;;8396396;28;20260;-71
2022/02/25 15:28:11;;;;;;;;;;;11.70;99.90;;;;;;8384769;28;19931;-71
2022/02/25 15:32:14;;;;;;;;;;;12.00;99.90;;;;;;8412075;28;20007;-71
2022/02/25 15:36:16;;;;;;;;;;;12.30;99.90;;;;;;8410696;28;20409;-71
2022/02/25 15:40:18;;;;;;;;;;;12.20;99.90;;;;;;8406629;28;20320;-71
2022/02/25 15:44:24;;;;;;;;;;;12.00;99.90;;;;;;8415830;28;19993;-71
2022/02/25 15:48:26;;;;;;;;;;;11.80;99.90;;;;;;8408130;28;19979;-71
2022/02/25 15:52:28;;;;;;;;;;;11.40;99.90;;;;;;8391975;28;19924;-71
2022/02/25 15:56:29;;;;;;;;;;;11.20;99.90;;;;;;8403023;28;19976;-71
2022/02/25 16:00:32;;;;;;;;;;;11.30;99.90;;;;;;8411128;28;19924;-71
2022/02/25 16:04:33;;;;;;;;;;;11.10;99.90;;;;;;8392976;28;19932;-71
2022/02/25 16:08:35;;;;;;;;;;;10.70;99.90;;;;;;8403845;28;19928;-71
2022/02/25 16:12:37;;;;;;;;;;;10.30;99.90;;;;;;8393096;28;19924;-71
2022/02/25 16:16:40;;;;;;;;;;;9.90;99.90;;;;;;8399429;28;20248;-71
2022/02/25 16:20:42;;;;;;;;;;;9.50;99.90;;;;;;8409824;28;19959;-71
2022/02/25 16:24:44;;;;;;;;;;;9.20;99.90;;;;;;8406268;28;20670;-71
2022/02/25 16:28:45;;;;;;;;;;;8.90;99.90;;;;;;8394383;28;19924;-71
2022/02/25 16:32:47;;;;;;;;;;;8.70;99.90;;;;;;8403357;28;20280;-71
2022/02/25 16:36:50;;;;;;;;;;;8.60;99.90;;;;;;8399055;28;19931;-71
2022/02/25 16:40:51;;;;;;;;;;;8.40;99.90;;;;;;8399686;28;20473;-71
2022/02/25 16:44:53;;;;;;;;;;;8.40;99.90;;;;;;8396583;28;19931;-71
2022/02/25 16:48:58;;;;;;;;;;;8.30;99.90;;;;;;8407036;28;19939;-71
2022/02/25 16:53:00;;;;;;;;;;;8.20;99.90;;;;;;8384981;28;19951;-71
2022/02/25 16:57:04;;;;;;;;;;;8.10;99.90;;;;;;8384488;28;20316;-71
2022/02/25 17:01:05;;;;;;;;;;;8.00;99.90;;;;;;8369835;28;20430;-71
2022/02/25 17:05:08;;;;;;;;;;;7.90;99.90;;;;;;8368147;28;20418;-71
2022/02/25 17:09:12;;;;;;;;;;;7.90;99.90;;;;;;8387960;28;19938;-71
2022/02/25 17:13:13;;;;;;;;;;;7.90;99.90;;;;;;8379726;28;19976;-71
2022/02/25 17:17:15;;;;;;;;;;;7.90;99.90;;;;;;8384491;28;19928;-71
2022/02/25 17:21:17;;;;;;;;;;;7.90;99.90;;;;;;8385157;28;20308;-71
2022/02/25 17:25:19;;;;;;;;;;;7.80;99.90;;;;;;8384797;28;19929;-71
2022/02/25 17:29:21;;;;;;;;;;;7.80;99.90;;;;;;8383698;28;19935;-71
2022/02/25 17:33:22;;;;;;;;;;;7.70;99.90;;;;;;8388160;28;19925;-71
2022/02/25 17:37:24;;;;;;;;;;;7.60;99.90;;;;;;8387941;28;19940;-71
2022/02/25 17:41:26;;;;;;;;;;;7.60;99.90;;;;;;8381160;28;20309;-71
2022/02/25 17:45:28;;;;;;;;;;;7.50;99.90;;;;;;8392946;28;19955;-71
2022/02/25 17:49:29;;;;;;;;;;;7.40;99.90;;;;;;8388082;28;20352;-71
2022/02/25 17:53:31;;;;;;;;;;;7.40;99.90;;;;;;8390115;28;19925;-71
2022/02/25 17:57:33;;;;;;;;;;;7.30;99.90;;;;;;8387550;28;19932;-71
2022/02/25 18:01:35;;;;;;;;;;;7.30;99.90;;;;;;8389278;28;19932;-71
2022/02/25 18:05:36;;;;;;;;;;;7.20;99.90;;;;;;8394216;28;20318;-71
2022/02/25 18:09:39;;;;;;;;;;;7.20;99.90;;;;;;8393599;28;19993;-71
2022/02/25 18:13:41;;;;;;;;;;;7.20;99.90;;;;;;8394260;28;19932;-71
2022/02/25 18:17:43;;;;;;;;;;;7.20;99.90;;;;;;8391295;28;19933;-71
2022/02/25 18:21:45;;;;;;;;;;;7.10;99.90;;;;;;8395042;28;20093;-71
2022/02/25 18:25:47;;;;;;;;;;;7.10;99.90;;;;;;8393002;28;19932;-71
2022/02/25 18:29:48;;;;;;;;;;;7.10;99.90;;;;;;8388813;28;19932;-71
2022/02/25 18:33:50;;;;;;;;;;;7.10;99.90;;;;;;8389981;28;20002;-71
2022/02/25 18:37:53;;;;;;;;;;;7.10;99.90;;;;;;8385224;28;20019;-72
2022/02/25 18:41:54;;;;;;;;;;;7.00;99.90;;;;;;8384646;28;19955;-71
2022/02/25 18:45:56;;;;;;;;;;;7.00;99.90;;;;;;8389058;28;19967;-71
2022/02/25 18:49:58;;;;;;;;;;;7.00;99.90;;;;;;8370312;28;19928;-71
2022/02/25 18:54:00;;;;;;;;;;;7.00;99.90;;;;;;8387665;28;19925;-71
2022/02/25 18:58:02;;;;;;;;;;;7.00;99.90;;;;;;8369966;28;19928;-71
2022/02/25 19:02:07;;;;;;;;;;;7.00;99.90;;;;;;8389098;28;20133;-71
2022/02/25 19:06:09;;;;;;;;;;;6.90;99.90;;;;;;8389419;28;19984;-71
2022/02/25 19:10:11;;;;;;;;;;;6.80;99.90;;;;;;8393225;28;19932;-71
2022/02/25 19:14:13;;;;;;;;;;;6.70;99.90;;;;;;8388325;28;19924;-71
2022/02/25 19:18:14;;;;;;;;;;;6.60;99.90;;;;;;8387104;28;19932;-71
2022/02/25 19:22:16;;;;;;;;;;;6.50;99.90;;;;;;8388002;28;19933;-71
2022/02/25 19:26:18;;;;;;;;;;;6.40;99.90;;;;;;8389268;28;19936;-71
2022/02/25 19:30:19;;;;;;;;;;;6.30;99.90;;;;;;8391489;28;19928;-71
2022/02/25 19:34:21;;;;;;;;;;;6.30;99.90;;;;;;8381278;28;19925;-71
2022/02/25 19:38:23;;;;;;;;;;;6.20;99.90;;;;;;8384462;28;19928;-71
2022/02/25 19:42:24;;;;;;;;;;;6.20;99.90;;;;;;8370941;28;19971;-71
2022/02/25 19:46:26;;;;;;;;;;;6.10;99.90;;;;;;8388484;28;19925;-71
2022/02/25 19:50:28;;;;;;;;;;;6.00;99.90;;;;;;8388893;28;19928;-71
2022/02/25 19:54:29;;;;;;;;;;;5.90;99.90;;;;;;8386167;28;19998;-71
2022/02/25 19:58:31;;;;;;;;;;;5.80;99.90;;;;;;8370376;28;19928;-71
2022/02/25 20:02:33;;;;;;;;;;;5.70;99.90;;;;;;8381909;28;19973;-71
2022/02/25 20:06:34;;;;;;;;;;;5.60;99.90;;;;;;8389256;28;19994;-71
2022/02/25 20:10:36;;;;;;;;;;;5.50;99.90;;;;;;8388222;28;19939;-71
2022/02/25 20:14:38;;;;;;;;;;;5.50;99.90;;;;;;8385091;28;19928;-71
2022/02/25 20:18:39;;;;;;;;;;;5.40;99.90;;;;;;8382769;28;20380;-71
2022/02/25 20:22:41;;;;;;;;;;;5.30;99.90;;;;;;8385190;28;19932;-71
2022/02/25 20:26:43;;;;;;;;;;;5.30;99.90;;;;;;8384904;28;19932;-71
2022/02/25 20:30:47;;;;;;;;;;;5.20;99.90;;;;;;8367211;28;19976;-71
2022/02/25 20:34:49;;;;;;;;;;;5.10;99.90;;;;;;8384492;28;20008;-71
2022/02/25 20:38:51;;;;;;;;;;;5.10;99.90;;;;;;8386590;28;20372;-71
2022/02/25 20:42:53;;;;;;;;;;;5.00;99.90;;;;;;8386692;28;20379;-71
2022/02/25 20:46:54;;;;;;;;;;;5.00;99.90;;;;;;8386339;28;19936;-71
2022/02/25 20:50:56;;;;;;;;;;;4.90;99.90;;;;;;8383356;28;19970;-71
2022/02/25 20:54:58;;;;;;;;;;;4.80;99.90;;;;;;8374991;28;20371;-71
2022/02/25 20:59:00;;;;;;;;;;;4.70;99.90;;;;;;8379417;28;19940;-71
2022/02/25 21:03:01;;;;;;;;;;;4.60;99.90;;;;;;8383564;28;20401;-71
2022/02/25 21:07:03;;;;;;;;;;;4.40;99.90;;;;;;8380808;28;20023;-71
2022/02/25 21:11:05;;;;;;;;;;;4.30;99.90;;;;;;8390229;28;20376;-71
2022/02/25 21:15:07;;;;;;;;;;;4.20;99.90;;;;;;8387893;28;19939;-71
2022/02/25 21:19:10;;;;;;;;;;;4.10;99.90;;;;;;8395119;28;19932;-71
2022/02/25 21:23:12;;;;;;;;;;;4.00;99.90;;;;;;8390333;28;19924;-71
2022/02/25 21:27:13;;;;;;;;;;;3.90;99.90;;;;;;8393098;28;19929;-71
2022/02/25 21:31:16;;;;;;;;;;;3.90;99.90;;;;;;8390370;28;20410;-71
2022/02/25 21:35:21;;;;;;;;;;;3.80;99.90;;;;;;8389014;28;19978;-71
2022/02/25 21:39:23;;;;;;;;;;;3.80;99.90;;;;;;8361527;28;19924;-71
2022/02/25 21:43:26;;;;;;;;;;;3.70;99.90;;;;;;8391539;28;20424;-71
2022/02/25 21:47:29;;;;;;;;;;;3.70;99.90;;;;;;8386976;28;19967;-71
2022/02/25 21:51:31;;;;;;;;;;;3.70;99.90;;;;;;8392143;28;19924;-71
2022/02/25 21:55:32;;;;;;;;;;;3.60;99.90;;;;;;8384269;28;19928;-71
2022/02/25 21:59:34;;;;;;;;;;;3.60;99.90;;;;;;8391161;28;19931;-71
2022/02/25 22:03:37;;;;;;;;;;;3.50;99.90;;;;;;8391026;28;19928;-71
2022/02/25 22:07:39;;;;;;;;;;;3.40;99.90;;;;;;8398330;28;20280;-71
2022/02/25 22:11:40;;;;;;;;;;;3.40;99.90;;;;;;8406930;28;19928;-71
2022/02/25 22:15:42;;;;;;;;;;;3.30;99.90;;;;;;8390889;28;20372;-71
2022/02/25 22:19:44;;;;;;;;;;;3.30;99.90;;;;;;8407144;28;19924;-71
2022/02/25 22:23:46;;;;;;;;;;;3.30;99.90;;;;;;8388700;28;19932;-71
2022/02/25 22:27:48;;;;;;;;;;;3.20;99.90;;;;;;8411286;28;19935;-71
2022/02/25 22:31:50;;;;;;;;;;;3.20;99.90;;;;;;8404399;28;19982;-71
2022/02/25 22:35:52;;;;;;;;;;;3.20;99.90;;;;;;8398397;28;19924;-71
2022/02/25 22:39:53;;;;;;;;;;;3.10;99.90;;;;;;8402024;28;19928;-71
2022/02/25 22:43:55;;;;;;;;;;;3.00;99.90;;;;;;8410219;28;19928;-71
2022/02/25 22:47:57;;;;;;;;;;;2.90;99.90;;;;;;8383607;28;19947;-71
2022/02/25 23:00:45;;;;;;;;;;;2.80;99.90;;;;;;8366077;28;19924;-71
2022/02/25 23:09:07;;;;;;;;;;;2.80;99.90;;;;;;8405195;28;19940;-71
2022/02/25 23:13:09;;;;;;;;;;;2.80;99.90;;;;;;8397890;28;19924;-71
2022/02/25 23:17:11;;;;;;;;;;;2.70;99.90;;;;;;8409420;28;20336;-71
2022/02/25 23:21:13;;;;;;;;;;;2.60;99.90;;;;;;8408524;28;19974;-71
2022/02/25 23:25:15;;;;;;;;;;;2.60;99.90;;;;;;8375240;28;19949;-71
2022/02/25 23:29:16;;;;;;;;;;;2.50;99.90;;;;;;8391261;28;19925;-71
2022/02/25 23:33:18;;;;;;;;;;;2.50;99.90;;;;;;8405095;28;19936;-71
2022/02/25 23:37:20;;;;;;;;;;;2.40;99.90;;;;;;8406361;28;20418;-71
2022/02/25 23:41:21;;;;;;;;;;;2.40;99.90;;;;;;8378666;28;20403;-71
2022/02/25 23:45:23;;;;;;;;;;;2.30;99.90;;;;;;8400886;28;19932;-71
2022/02/25 23:49:25;;;;;;;;;;;2.30;99.90;;;;;;8390380;28;19932;-71
2022/02/25 23:53:26;;;;;;;;;;;2.20;99.90;;;;;;8403231;28;19936;-70
2022/02/25 23:57:28;;;;;;;;;;;2.20;99.90;;;;;;8386228;28;19928;-71
